createdAt,value
2022-08-01T00:00:12.077Z,0
2022-08-01T00:01:28.268Z,0
2022-08-01T00:02:44.667Z,0
2022-08-01T00:04:00.631Z,0
2022-08-01T00:05:17.044Z,0
2022-08-01T00:06:32.258Z,0
2022-08-01T00:07:48.448Z,0
2022-08-01T00:09:04.403Z,0
2022-08-01T00:10:20.827Z,0
2022-08-01T00:11:36.801Z,0
2022-08-01T00:12:53.202Z,0
2022-08-01T00:14:09.386Z,0
2022-08-01T00:15:25.578Z,0
2022-08-01T00:16:41.773Z,0
2022-08-01T00:17:57.960Z,0
2022-08-01T00:19:13.930Z,0
2022-08-01T00:20:30.346Z,0
2022-08-01T00:21:46.519Z,0
2022-08-01T00:23:01.736Z,0
2022-08-01T00:24:17.920Z,0
2022-08-01T00:25:33.885Z,0
2022-08-01T00:26:50.291Z,0
2022-08-01T00:28:06.495Z,0
2022-08-01T00:29:22.670Z,0
2022-08-01T00:30:38.860Z,0
2022-08-01T00:31:54.823Z,0
2022-08-01T00:33:11.253Z,0
2022-08-01T00:34:27.429Z,0
2022-08-01T00:35:43.627Z,0
2022-08-01T00:36:59.819Z,0
2022-08-01T00:38:15.785Z,0
2022-08-01T00:39:30.991Z,0
2022-08-01T00:40:47.406Z,0
2022-08-01T00:42:03.577Z,0
2022-08-01T00:43:19.768Z,0
2022-08-01T00:44:35.959Z,0
2022-08-01T00:45:51.936Z,0
2022-08-01T00:47:08.119Z,0
2022-08-01T00:48:24.523Z,0
2022-08-01T00:49:40.730Z,0
2022-08-01T00:50:56.683Z,0
2022-08-01T00:52:13.102Z,0
2022-08-01T00:53:29.294Z,0
2022-08-01T00:54:45.260Z,0
2022-08-01T00:56:00.695Z,0
2022-08-01T00:57:16.649Z,0
2022-08-01T00:58:33.069Z,0
2022-08-01T00:59:49.248Z,0
2022-08-01T01:01:05.218Z,0
2022-08-01T01:02:21.627Z,0
2022-08-01T01:03:37.591Z,0
2022-08-01T01:04:53.768Z,0
2022-08-01T01:06:10.202Z,0
2022-08-01T01:07:26.385Z,0
2022-08-01T01:08:42.578Z,0
2022-08-01T01:09:58.527Z,0
2022-08-01T01:11:14.958Z,0
2022-08-01T01:12:29.929Z,0
2022-08-01T01:13:46.338Z,0
2022-08-01T01:15:02.530Z,0
2022-08-01T01:16:18.733Z,0
2022-08-01T01:17:34.678Z,0
2022-08-01T01:18:51.109Z,0
2022-08-01T01:20:07.062Z,0
2022-08-01T01:21:23.479Z,0
2022-08-01T01:22:39.665Z,0
2022-08-01T01:23:55.854Z,0
2022-08-01T01:25:11.828Z,0
2022-08-01T01:26:28.240Z,0
2022-08-01T01:27:44.434Z,0
2022-08-01T01:28:59.403Z,0
2022-08-01T01:30:15.818Z,0
2022-08-01T01:31:32.010Z,0
2022-08-01T01:32:47.975Z,0
2022-08-01T01:34:04.387Z,0
2022-08-01T01:35:20.581Z,0
2022-08-01T01:36:36.531Z,0
2022-08-01T01:37:52.951Z,0
2022-08-01T01:39:09.151Z,0
2022-08-01T01:40:25.099Z,0
2022-08-01T01:41:41.281Z,0
2022-08-01T01:42:57.705Z,0
2022-08-01T01:44:13.911Z,0
2022-08-01T01:45:29.109Z,0
2022-08-01T01:46:45.300Z,0
2022-08-01T01:48:01.253Z,0
2022-08-01T01:49:17.682Z,0
2022-08-01T01:50:33.870Z,0
2022-08-01T01:51:50.054Z,0
2022-08-01T01:53:05.026Z,0
2022-08-01T01:54:21.445Z,0
2022-08-01T01:55:37.409Z,0
2022-08-01T01:56:53.843Z,0
2022-08-01T01:58:09.781Z,0
2022-08-01T01:59:26.204Z,0
2022-08-01T02:00:42.403Z,0
2022-08-01T02:01:58.586Z,0
2022-08-01T02:03:14.533Z,0
2022-08-01T02:04:30.964Z,0
2022-08-01T02:05:47.157Z,0
2022-08-01T02:07:03.351Z,0
2022-08-01T02:08:19.288Z,0
2022-08-01T02:09:34.492Z,0
2022-08-01T02:10:50.690Z,0
2022-08-01T02:12:07.121Z,0
2022-08-01T02:13:23.306Z,0
2022-08-01T02:14:39.488Z,0
2022-08-01T02:15:55.694Z,0
2022-08-01T02:17:11.875Z,0
2022-08-01T02:18:28.064Z,0
2022-08-01T02:19:44.012Z,0
2022-08-01T02:21:00.448Z,0
2022-08-01T02:22:16.636Z,0
2022-08-01T02:23:32.564Z,0
2022-08-01T02:24:49.010Z,0
2022-08-01T02:26:03.969Z,0
2022-08-01T02:27:20.398Z,0
2022-08-01T02:28:36.587Z,0
2022-08-01T02:29:52.786Z,0
2022-08-01T02:31:08.969Z,0
2022-08-01T02:32:24.912Z,0
2022-08-01T02:33:41.107Z,0
2022-08-01T02:34:57.542Z,0
2022-08-01T02:36:13.725Z,0
2022-08-01T02:37:29.907Z,0
2022-08-01T02:38:45.852Z,0
2022-08-01T02:40:02.037Z,0
2022-08-01T02:41:18.485Z,0
2022-08-01T02:42:33.689Z,0
2022-08-01T02:43:49.621Z,0
2022-08-01T02:45:05.817Z,0
2022-08-01T02:46:22.266Z,0
2022-08-01T02:47:38.439Z,0
2022-08-01T02:48:54.390Z,0
2022-08-01T02:50:10.828Z,0
2022-08-01T02:51:26.766Z,0
2022-08-01T02:52:42.937Z,0
2022-08-01T02:53:59.136Z,0
2022-08-01T02:55:15.581Z,0
2022-08-01T02:56:31.519Z,0
2022-08-01T02:57:47.712Z,0
2022-08-01T02:59:03.166Z,0
2022-08-01T03:00:19.352Z,0
2022-08-01T03:01:35.535Z,4
2022-08-01T03:02:51.725Z,4
2022-08-01T03:04:07.671Z,4
2022-08-01T03:05:24.109Z,0
2022-08-01T03:06:40.292Z,4
2022-08-01T03:07:56.241Z,4
2022-08-01T03:09:12.677Z,8
2022-08-01T03:10:28.000Z,8
2022-08-01T03:11:44.790Z,8
2022-08-01T03:13:01.249Z,16
2022-08-01T03:14:17.426Z,16
2022-08-01T03:15:32.632Z,16
2022-08-01T03:16:48.828Z,16
2022-08-01T03:18:05.006Z,24
2022-08-01T03:19:21.211Z,28
2022-08-01T03:20:37.131Z,32
2022-08-01T03:21:53.589Z,32
2022-08-01T03:23:09.523Z,36
2022-08-01T03:24:25.709Z,44
2022-08-01T03:25:42.154Z,48
2022-08-01T03:26:58.075Z,52
2022-08-01T03:28:14.526Z,60
2022-08-01T03:29:30.454Z,68
2022-08-01T03:30:46.922Z,72
2022-08-01T03:32:02.119Z,76
2022-08-01T03:33:18.309Z,84
2022-08-01T03:34:34.482Z,96
2022-08-01T03:35:50.415Z,104
2022-08-01T03:37:06.616Z,112
2022-08-01T03:38:23.064Z,120
2022-08-01T03:39:39.250Z,128
2022-08-01T03:40:55.440Z,136
2022-08-01T03:42:11.360Z,136
2022-08-01T03:43:27.814Z,140
2022-08-01T03:44:44.006Z,152
2022-08-01T03:46:00.194Z,168
2022-08-01T03:47:16.112Z,192
2022-08-01T03:48:31.316Z,208
2022-08-01T03:49:47.771Z,216
2022-08-01T03:51:03.962Z,224
2022-08-01T03:52:20.161Z,208
2022-08-01T03:53:36.332Z,200
2022-08-01T03:54:52.275Z,200
2022-08-01T03:56:08.460Z,192
2022-08-01T03:57:24.641Z,180
2022-08-01T03:58:41.101Z,176
2022-08-01T03:59:57.289Z,172
2022-08-01T04:01:13.470Z,156
2022-08-01T04:02:29.671Z,184
2022-08-01T04:03:45.852Z,168
2022-08-01T04:05:01.067Z,176
2022-08-01T04:06:17.254Z,180
2022-08-01T04:07:33.446Z,156
2022-08-01T04:08:49.637Z,204
2022-08-01T04:10:05.813Z,252
2022-08-01T04:11:22.006Z,264
2022-08-01T04:12:37.932Z,312
2022-08-01T04:13:54.388Z,360
2022-08-01T04:15:10.581Z,412
2022-08-01T04:16:26.755Z,464
2022-08-01T04:17:42.947Z,500
2022-08-01T04:18:59.136Z,408
2022-08-01T04:20:15.323Z,296
2022-08-01T04:21:30.542Z,284
2022-08-01T04:22:46.731Z,284
2022-08-01T04:24:02.921Z,256
2022-08-01T04:25:19.098Z,240
2022-08-01T04:26:35.030Z,304
2022-08-01T04:27:51.208Z,396
2022-08-01T04:29:07.676Z,388
2022-08-01T04:30:23.862Z,324
2022-08-01T04:31:39.782Z,432
2022-08-01T04:32:56.232Z,440
2022-08-01T04:34:12.429Z,404
2022-08-01T04:35:28.350Z,412
2022-08-01T04:36:44.795Z,400
2022-08-01T04:38:00.016Z,432
2022-08-01T04:39:15.916Z,524
2022-08-01T04:40:32.396Z,412
2022-08-01T04:41:48.299Z,396
2022-08-01T04:43:04.765Z,488
2022-08-01T04:44:20.961Z,400
2022-08-01T04:45:37.153Z,376
2022-08-01T04:46:53.330Z,408
2022-08-01T04:48:09.521Z,528
2022-08-01T04:49:25.442Z,668
2022-08-01T04:50:41.632Z,668
2022-08-01T04:51:57.810Z,592
2022-08-01T04:53:14.269Z,616
2022-08-01T04:54:29.473Z,848
2022-08-01T04:55:45.680Z,944
2022-08-01T04:57:01.863Z,856
2022-08-01T04:58:18.054Z,784
2022-08-01T04:59:34.236Z,552
2022-08-01T05:00:50.430Z,520
2022-08-01T05:02:06.627Z,612
2022-08-01T05:03:22.812Z,528
2022-08-01T05:04:38.993Z,400
2022-08-01T05:05:55.189Z,424
2022-08-01T05:07:11.380Z,444
2022-08-01T05:08:27.554Z,456
2022-08-01T05:09:43.758Z,496
2022-08-01T05:10:58.963Z,544
2022-08-01T05:12:15.136Z,528
2022-08-01T05:13:31.336Z,516
2022-08-01T05:14:47.248Z,616
2022-08-01T05:16:03.433Z,712
2022-08-01T05:17:19.911Z,556
2022-08-01T05:18:35.804Z,556
2022-08-01T05:19:52.276Z,748
2022-08-01T05:21:08.474Z,620
2022-08-01T05:22:24.661Z,572
2022-08-01T05:23:40.838Z,516
2022-08-01T05:24:57.041Z,672
2022-08-01T05:26:13.234Z,604
2022-08-01T05:27:28.423Z,580
2022-08-01T05:28:44.340Z,552
2022-08-01T05:30:00.520Z,540
2022-08-01T05:31:16.726Z,724
2022-08-01T05:32:33.190Z,636
2022-08-01T05:33:49.383Z,712
2022-08-01T05:35:05.571Z,504
2022-08-01T05:36:21.746Z,388
2022-08-01T05:37:37.951Z,356
2022-08-01T05:38:53.842Z,480
2022-08-01T05:40:10.030Z,516
2022-08-01T05:41:26.513Z,516
2022-08-01T05:42:42.703Z,696
2022-08-01T05:43:57.902Z,964
2022-08-01T05:45:14.090Z,808
2022-08-01T05:46:30.288Z,920
2022-08-01T05:47:46.466Z,756
2022-08-01T05:49:02.378Z,820
2022-08-01T05:50:18.842Z,856
2022-08-01T05:51:35.012Z,652
2022-08-01T05:52:51.228Z,724
2022-08-01T05:54:07.424Z,532
2022-08-01T05:55:23.594Z,572
2022-08-01T05:56:39.790Z,600
2022-08-01T05:57:55.978Z,720
2022-08-01T05:59:12.155Z,940
2022-08-01T06:00:27.379Z,852
2022-08-01T06:01:43.578Z,1328
2022-08-01T06:02:59.751Z,1296
2022-08-01T06:04:15.951Z,1300
2022-08-01T06:05:32.127Z,1048
2022-08-01T06:06:48.308Z,1224
2022-08-01T06:08:03.517Z,1756
2022-08-01T06:09:19.722Z,1516
2022-08-01T06:10:35.914Z,1128
2022-08-01T06:11:52.087Z,1548
2022-08-01T06:13:08.286Z,1808
2022-08-01T06:14:24.442Z,1708
2022-08-01T06:15:40.661Z,1500
2022-08-01T06:16:56.811Z,1676
2022-08-01T06:18:13.003Z,1988
2022-08-01T06:19:29.186Z,1812
2022-08-01T06:20:45.407Z,2076
2022-08-01T06:22:01.569Z,1952
2022-08-01T06:23:17.787Z,1916
2022-08-01T06:24:32.944Z,2408
2022-08-01T06:25:49.174Z,2300
2022-08-01T06:27:05.352Z,1712
2022-08-01T06:28:21.519Z,1388
2022-08-01T06:29:37.707Z,1416
2022-08-01T06:30:53.920Z,1940
2022-08-01T06:32:10.068Z,2388
2022-08-01T06:33:26.270Z,1712
2022-08-01T06:34:42.488Z,1236
2022-08-01T06:35:58.638Z,1440
2022-08-01T06:37:14.831Z,856
2022-08-01T06:38:31.053Z,688
2022-08-01T06:39:47.191Z,720
2022-08-01T06:41:02.394Z,972
2022-08-01T06:42:18.618Z,1108
2022-08-01T06:43:34.787Z,1356
2022-08-01T06:44:50.968Z,1268
2022-08-01T06:46:07.141Z,1140
2022-08-01T06:47:23.345Z,1204
2022-08-01T06:48:39.653Z,1328
2022-08-01T06:49:55.713Z,1084
2022-08-01T06:51:12.038Z,1052
2022-08-01T06:52:28.224Z,992
2022-08-01T06:53:44.405Z,1140
2022-08-01T06:55:00.464Z,1180
2022-08-01T06:56:16.791Z,1132
2022-08-01T06:57:31.981Z,1140
2022-08-01T06:58:48.170Z,1620
2022-08-01T07:00:04.221Z,2136
2022-08-01T07:01:20.547Z,1672
2022-08-01T07:02:36.593Z,1772
2022-08-01T07:03:52.918Z,2108
2022-08-01T07:05:09.110Z,1852
2022-08-01T07:06:25.163Z,1988
2022-08-01T07:07:41.353Z,2476
2022-08-01T07:08:57.543Z,2504
2022-08-01T07:10:13.713Z,2720
2022-08-01T07:11:30.046Z,2940
2022-08-01T07:12:46.230Z,2080
2022-08-01T07:14:01.301Z,1308
2022-08-01T07:15:17.479Z,904
2022-08-01T07:16:33.821Z,916
2022-08-01T07:17:49.865Z,1136
2022-08-01T07:19:06.186Z,1472
2022-08-01T07:20:22.381Z,1772
2022-08-01T07:21:38.572Z,1840
2022-08-01T07:22:54.619Z,1940
2022-08-01T07:24:10.806Z,1836
2022-08-01T07:25:26.995Z,2512
2022-08-01T07:26:43.323Z,1992
2022-08-01T07:27:59.510Z,2420
2022-08-01T07:29:15.679Z,1836
2022-08-01T07:30:30.754Z,2296
2022-08-01T07:31:47.081Z,3332
2022-08-01T07:33:03.126Z,2384
2022-08-01T07:34:19.462Z,1452
2022-08-01T07:35:35.637Z,1160
2022-08-01T07:36:51.692Z,908
2022-08-01T07:38:08.018Z,1144
2022-08-01T07:39:24.207Z,948
2022-08-01T07:40:40.252Z,676
2022-08-01T07:41:56.585Z,628
2022-08-01T07:43:12.759Z,628
2022-08-01T07:44:28.953Z,648
2022-08-01T07:45:45.001Z,676
2022-08-01T07:47:00.351Z,696
2022-08-01T07:48:16.385Z,764
2022-08-01T07:49:32.724Z,732
2022-08-01T07:50:48.758Z,548
2022-08-01T07:52:05.090Z,528
2022-08-01T07:53:21.123Z,412
2022-08-01T07:54:37.465Z,372
2022-08-01T07:55:53.505Z,476
2022-08-01T07:57:09.696Z,608
2022-08-01T07:58:26.033Z,984
2022-08-01T07:59:42.214Z,1612
2022-08-01T08:00:58.258Z,1440
2022-08-01T08:02:14.591Z,1352
2022-08-01T08:03:29.654Z,1676
2022-08-01T08:04:45.824Z,2248
2022-08-01T08:06:02.172Z,2500
2022-08-01T08:07:18.361Z,3176
2022-08-01T08:08:34.403Z,3632
2022-08-01T08:09:50.738Z,3868
2022-08-01T08:11:06.918Z,3068
2022-08-01T08:12:23.098Z,2880
2022-08-01T08:13:39.297Z,2800
2022-08-01T08:14:55.330Z,2756
2022-08-01T08:16:11.507Z,2060
2022-08-01T08:17:27.853Z,1816
2022-08-01T08:18:44.049Z,2156
2022-08-01T08:19:59.259Z,2032
2022-08-01T08:21:15.428Z,1668
2022-08-01T08:22:31.627Z,1672
2022-08-01T08:23:47.817Z,1532
2022-08-01T08:25:03.998Z,808
2022-08-01T08:26:20.190Z,648
2022-08-01T08:27:36.218Z,604
2022-08-01T08:28:52.559Z,580
2022-08-01T08:30:08.757Z,548
2022-08-01T08:31:24.771Z,500
2022-08-01T08:32:41.125Z,572
2022-08-01T08:33:57.308Z,632
2022-08-01T08:35:13.504Z,652
2022-08-01T08:36:28.701Z,620
2022-08-01T08:37:44.885Z,660
2022-08-01T08:39:00.923Z,700
2022-08-01T08:40:17.116Z,700
2022-08-01T08:41:33.458Z,720
2022-08-01T08:42:49.635Z,864
2022-08-01T08:44:05.826Z,1028
2022-08-01T08:45:22.022Z,1188
2022-08-01T08:46:38.038Z,1300
2022-08-01T08:47:54.384Z,1412
2022-08-01T08:49:10.584Z,1332
2022-08-01T08:50:26.754Z,1800
2022-08-01T08:51:42.956Z,2352
2022-08-01T08:52:57.997Z,2216
2022-08-01T08:54:14.188Z,2440
2022-08-01T08:55:30.519Z,2880
2022-08-01T08:56:46.545Z,2572
2022-08-01T08:58:02.892Z,2288
2022-08-01T08:59:19.086Z,2504
2022-08-01T09:00:35.122Z,3728
2022-08-01T09:01:51.310Z,4144
2022-08-01T09:03:07.650Z,4540
2022-08-01T09:04:23.835Z,5032
2022-08-01T09:05:39.859Z,5376
2022-08-01T09:06:56.215Z,5380
2022-08-01T09:08:12.400Z,5160
2022-08-01T09:09:27.437Z,3592
2022-08-01T09:10:43.801Z,2524
2022-08-01T09:11:59.808Z,1888
2022-08-01T09:13:16.176Z,1628
2022-08-01T09:14:32.355Z,1280
2022-08-01T09:15:48.541Z,1108
2022-08-01T09:17:04.573Z,1312
2022-08-01T09:18:20.912Z,1792
2022-08-01T09:19:37.095Z,2460
2022-08-01T09:20:53.116Z,3004
2022-08-01T09:22:09.487Z,3536
2022-08-01T09:23:25.490Z,4068
2022-08-01T09:24:41.856Z,3856
2022-08-01T09:25:56.887Z,3100
2022-08-01T09:27:13.083Z,2876
2022-08-01T09:28:29.439Z,2752
2022-08-01T09:29:45.615Z,1680
2022-08-01T09:31:01.805Z,1868
2022-08-01T09:32:17.818Z,1332
2022-08-01T09:33:34.177Z,1172
2022-08-01T09:34:50.370Z,1152
2022-08-01T09:36:06.552Z,1148
2022-08-01T09:37:22.746Z,1140
2022-08-01T09:38:38.930Z,1164
2022-08-01T09:39:54.959Z,1172
2022-08-01T09:41:11.310Z,1100
2022-08-01T09:42:26.512Z,1184
2022-08-01T09:43:42.531Z,1260
2022-08-01T09:44:58.891Z,1340
2022-08-01T09:46:15.078Z,1448
2022-08-01T09:47:31.085Z,1468
2022-08-01T09:48:47.439Z,1432
2022-08-01T09:50:03.626Z,1504
2022-08-01T09:51:19.821Z,2032
2022-08-01T09:52:35.827Z,3196
2022-08-01T09:53:52.200Z,3816
2022-08-01T09:55:08.388Z,4336
2022-08-01T09:56:24.564Z,4492
2022-08-01T09:57:40.756Z,4204
2022-08-01T09:58:55.954Z,4172
2022-08-01T10:00:12.153Z,4164
2022-08-01T10:01:28.346Z,2964
2022-08-01T10:02:44.351Z,1948
2022-08-01T10:04:00.702Z,1628
2022-08-01T10:05:16.906Z,1536
2022-08-01T10:06:33.079Z,1432
2022-08-01T10:07:49.266Z,1360
2022-08-01T10:09:05.292Z,1280
2022-08-01T10:10:21.651Z,1544
2022-08-01T10:11:37.841Z,1744
2022-08-01T10:12:54.016Z,1360
2022-08-01T10:14:10.039Z,1024
2022-08-01T10:15:25.425Z,964
2022-08-01T10:16:41.597Z,1096
2022-08-01T10:17:57.602Z,1436
2022-08-01T10:19:13.984Z,1892
2022-08-01T10:20:29.989Z,2224
2022-08-01T10:21:46.173Z,2236
2022-08-01T10:23:01.562Z,2280
2022-08-01T10:24:17.738Z,3472
2022-08-01T10:25:33.942Z,3948
2022-08-01T10:26:50.115Z,4320
2022-08-01T10:28:06.308Z,4400
2022-08-01T10:29:22.493Z,3764
2022-08-01T10:30:38.693Z,3340
2022-08-01T10:31:54.871Z,3436
2022-08-01T10:33:10.879Z,2700
2022-08-01T10:34:27.248Z,3276
2022-08-01T10:35:43.429Z,2780
2022-08-01T10:36:59.625Z,3072
2022-08-01T10:38:15.624Z,3188
2022-08-01T10:39:30.830Z,2328
2022-08-01T10:40:47.208Z,1796
2022-08-01T10:42:03.387Z,1328
2022-08-01T10:43:19.573Z,1624
2022-08-01T10:44:35.763Z,2580
2022-08-01T10:45:51.774Z,2216
2022-08-01T10:47:07.956Z,2632
2022-08-01T10:48:24.132Z,3064
2022-08-01T10:49:40.513Z,3456
2022-08-01T10:50:56.690Z,2424
2022-08-01T10:52:12.877Z,2200
2022-08-01T10:53:28.900Z,2204
2022-08-01T10:56:01.263Z,2208
2022-08-01T10:57:16.651Z,2768
2022-08-01T10:58:32.658Z,3104
2022-08-01T10:59:49.025Z,2892
2022-08-01T11:01:05.030Z,2008
2022-08-01T11:02:21.394Z,1700
2022-08-01T11:03:37.407Z,1760
2022-08-01T11:04:53.779Z,1760
2022-08-01T11:06:09.786Z,2104
2022-08-01T11:07:26.153Z,2548
2022-08-01T11:08:42.330Z,3436
2022-08-01T11:09:58.527Z,3900
2022-08-01T11:11:14.534Z,3420
2022-08-01T11:12:30.899Z,3000
2022-08-01T11:13:46.095Z,2856
2022-08-01T11:15:02.281Z,2964
2022-08-01T11:16:18.474Z,3128
2022-08-01T11:17:34.471Z,3264
2022-08-01T11:18:50.660Z,3764
2022-08-01T11:20:07.050Z,3900
2022-08-01T11:21:23.032Z,4048
2022-08-01T11:22:39.409Z,4480
2022-08-01T11:23:55.603Z,4980
2022-08-01T11:25:11.786Z,5520
2022-08-01T11:26:27.778Z,6164
2022-08-01T11:27:44.161Z,5192
2022-08-01T11:29:00.350Z,5000
2022-08-01T11:30:15.551Z,4572
2022-08-01T11:31:31.748Z,4376
2022-08-01T11:32:47.940Z,3352
2022-08-01T11:34:04.123Z,2408
2022-08-01T11:35:20.305Z,1684
2022-08-01T11:36:36.296Z,1084
2022-08-01T11:37:52.483Z,824
2022-08-01T11:39:08.860Z,952
2022-08-01T11:40:25.048Z,800
2022-08-01T11:41:41.241Z,872
2022-08-01T11:42:57.425Z,832
2022-08-01T11:44:13.625Z,704
2022-08-01T11:45:29.814Z,852
2022-08-01T11:46:44.816Z,1012
2022-08-01T11:48:00.998Z,1048
2022-08-01T11:49:17.193Z,1132
2022-08-01T11:50:33.572Z,1180
2022-08-01T11:51:49.756Z,1444
2022-08-01T11:53:05.947Z,1952
2022-08-01T11:54:21.945Z,2532
2022-08-01T11:55:38.327Z,3056
2022-08-01T11:56:54.319Z,2696
2022-08-01T11:58:10.690Z,2332
2022-08-01T11:59:26.890Z,2380
2022-08-01T12:00:43.060Z,2348
2022-08-01T12:01:59.253Z,2504
2022-08-01T12:03:14.262Z,2332
2022-08-01T12:04:30.648Z,2436
2022-08-01T12:05:46.830Z,2724
2022-08-01T12:07:03.022Z,2944
2022-08-01T12:08:19.207Z,2920
2022-08-01T12:09:35.193Z,2900
2022-08-01T12:10:51.579Z,3016
2022-08-01T12:12:07.776Z,3088
2022-08-01T12:13:23.964Z,3380
2022-08-01T12:14:40.146Z,3932
2022-08-01T12:15:56.341Z,4304
2022-08-01T12:17:12.517Z,5048
2022-08-01T12:18:28.715Z,5260
2022-08-01T12:19:43.704Z,5432
2022-08-01T12:21:00.094Z,5960
2022-08-01T12:22:16.081Z,6188
2022-08-01T12:23:32.475Z,6692
2022-08-01T12:24:48.655Z,7148
2022-08-01T12:26:04.845Z,8924
2022-08-01T12:27:20.833Z,9704
2022-08-01T12:28:37.230Z,10756
2022-08-01T12:29:53.409Z,15564
2022-08-01T12:31:09.604Z,29472
2022-08-01T12:32:25.584Z,11428
2022-08-01T12:33:41.972Z,14136
2022-08-01T12:34:58.159Z,7576
2022-08-01T12:36:13.366Z,12016
2022-08-01T12:37:29.353Z,20608
2022-08-01T12:38:45.748Z,33824
2022-08-01T12:40:01.932Z,7712
2022-08-01T12:41:17.911Z,5428
2022-08-01T12:42:34.305Z,6500
2022-08-01T12:43:50.481Z,8080
2022-08-01T12:45:06.671Z,7352
2022-08-01T12:46:22.855Z,6392
2022-08-01T12:47:39.051Z,5564
2022-08-01T12:48:55.240Z,7444
2022-08-01T12:50:11.226Z,6928
2022-08-01T12:51:27.619Z,5560
2022-08-01T12:52:42.825Z,6928
2022-08-01T12:53:58.803Z,6544
2022-08-01T12:55:14.985Z,6556
2022-08-01T12:56:31.384Z,7436
2022-08-01T12:57:47.572Z,8012
2022-08-01T12:59:03.757Z,8680
2022-08-01T13:00:19.727Z,7784
2022-08-01T13:01:36.140Z,7792
2022-08-01T13:02:52.315Z,8980
2022-08-01T13:04:08.506Z,10208
2022-08-01T13:05:24.701Z,7152
2022-08-01T13:06:40.681Z,6188
2022-08-01T13:07:57.075Z,7108
2022-08-01T13:09:12.051Z,7992
2022-08-01T13:10:28.450Z,5968
2022-08-01T13:11:44.646Z,8004
2022-08-01T13:13:00.622Z,10520
2022-08-01T13:14:17.023Z,12336
2022-08-01T13:15:33.213Z,11208
2022-08-01T13:16:49.387Z,13520
2022-08-01T13:18:05.582Z,34496
2022-08-01T13:19:21.779Z,80480
2022-08-01T13:20:37.754Z,20224
2022-08-01T13:21:54.152Z,13000
2022-08-01T13:23:10.341Z,12688
2022-08-01T13:24:26.517Z,5640
2022-08-01T13:25:41.505Z,3040
2022-08-01T13:26:57.915Z,1856
2022-08-01T13:28:13.876Z,1652
2022-08-01T13:29:30.284Z,1256
2022-08-01T13:30:46.476Z,900
2022-08-01T13:32:02.453Z,964
2022-08-01T13:33:18.628Z,972
2022-08-01T13:34:35.034Z,668
2022-08-01T13:35:51.015Z,516
2022-08-01T13:37:07.421Z,564
2022-08-01T13:38:23.610Z,492
2022-08-01T13:39:39.780Z,620
2022-08-01T13:40:55.979Z,756
2022-08-01T13:42:11.176Z,1100
2022-08-01T13:43:27.157Z,1296
2022-08-01T13:44:43.347Z,1452
2022-08-01T13:45:59.525Z,1844
2022-08-01T13:47:15.919Z,2400
2022-08-01T13:48:32.124Z,3116
2022-08-01T13:49:48.304Z,3768
2022-08-01T13:51:04.481Z,5016
2022-08-01T13:52:20.678Z,15992
2022-08-01T13:53:36.861Z,7952
2022-08-01T13:54:53.058Z,7404
2022-08-01T13:56:09.240Z,6932
2022-08-01T13:57:25.213Z,5760
2022-08-01T13:58:40.414Z,4908
2022-08-01T13:59:56.830Z,4184
2022-08-01T14:01:13.007Z,3520
2022-08-01T14:02:29.000Z,2804
2022-08-01T14:03:45.378Z,2348
2022-08-01T14:05:01.571Z,2268
2022-08-01T14:06:17.529Z,2004
2022-08-01T14:07:33.950Z,1508
2022-08-01T14:08:49.911Z,1132
2022-08-01T14:10:06.102Z,716
2022-08-01T14:11:22.505Z,476
2022-08-01T14:12:38.691Z,368
2022-08-01T14:13:54.655Z,388
2022-08-01T14:15:10.075Z,580
2022-08-01T14:16:26.039Z,892
2022-08-01T14:17:42.452Z,1068
2022-08-01T14:18:58.646Z,1336
2022-08-01T14:20:14.831Z,1704
2022-08-01T14:21:30.790Z,2336
2022-08-01T14:22:46.989Z,2404
2022-08-01T14:24:03.392Z,2560
2022-08-01T14:25:19.353Z,2620
2022-08-01T14:26:35.780Z,2700
2022-08-01T14:27:51.739Z,3100
2022-08-01T14:29:07.915Z,3340
2022-08-01T14:30:24.336Z,4680
2022-08-01T14:31:39.528Z,5076
2022-08-01T14:32:55.730Z,6020
2022-08-01T14:34:11.680Z,6700
2022-08-01T14:35:27.866Z,6284
2022-08-01T14:36:44.066Z,6124
2022-08-01T14:37:59.499Z,6304
2022-08-01T14:39:15.447Z,9512
2022-08-01T14:40:31.871Z,9312
2022-08-01T14:41:48.065Z,13980
2022-08-01T14:43:04.243Z,13156
2022-08-01T14:44:20.435Z,12680
2022-08-01T14:45:36.619Z,15888
2022-08-01T14:46:52.802Z,9984
2022-08-01T14:48:09.004Z,14704
2022-08-01T14:49:25.184Z,14064
2022-08-01T14:50:41.370Z,13344
2022-08-01T14:51:57.329Z,12832
2022-08-01T14:53:13.742Z,12332
2022-08-01T14:54:28.719Z,11052
2022-08-01T14:55:45.132Z,10064
2022-08-01T14:57:01.324Z,9700
2022-08-01T14:58:17.508Z,9996
2022-08-01T14:59:33.469Z,6248
2022-08-01T15:00:49.897Z,9328
2022-08-01T15:02:05.832Z,7036
2022-08-01T15:03:22.273Z,10224
2022-08-01T15:04:38.216Z,10612
2022-08-01T15:05:54.648Z,7192
2022-08-01T15:07:10.598Z,7260
2022-08-01T15:08:27.005Z,4552
2022-08-01T15:09:43.199Z,4800
2022-08-01T15:10:58.178Z,4468
2022-08-01T15:12:14.582Z,4584
2022-08-01T15:13:30.540Z,3796
2022-08-01T15:14:46.970Z,2916
2022-08-01T15:16:03.150Z,2620
2022-08-01T15:17:19.101Z,2768
2022-08-01T15:18:35.527Z,2652
2022-08-01T15:19:51.724Z,2036
2022-08-01T15:21:07.659Z,1576
2022-08-01T15:22:23.861Z,1360
2022-08-01T15:23:40.286Z,868
2022-08-01T15:24:56.469Z,556
2022-08-01T15:26:12.424Z,496
2022-08-01T15:27:27.613Z,584
2022-08-01T15:28:44.037Z,636
2022-08-01T15:30:00.006Z,716
2022-08-01T15:31:16.427Z,872
2022-08-01T15:32:32.379Z,948
2022-08-01T15:33:48.802Z,972
2022-08-01T15:35:04.982Z,1052
2022-08-01T15:36:21.162Z,1200
2022-08-01T15:37:37.364Z,1960
2022-08-01T15:38:53.308Z,2880
2022-08-01T15:40:09.501Z,3140
2022-08-01T15:41:25.919Z,2928
2022-08-01T15:42:42.115Z,2808
2022-08-01T15:43:57.315Z,2868
2022-08-01T15:45:13.258Z,2612
2022-08-01T15:46:29.700Z,2644
2022-08-01T15:47:45.648Z,2684
2022-08-01T15:49:02.071Z,2564
2022-08-01T15:50:18.267Z,2524
2022-08-01T15:51:34.216Z,4152
2022-08-01T15:52:50.400Z,4252
2022-08-01T15:54:06.828Z,4640
2022-08-01T15:55:22.784Z,5240
2022-08-01T15:56:39.199Z,5508
2022-08-01T15:57:55.389Z,5220
2022-08-01T15:59:11.588Z,4740
2022-08-01T16:00:26.798Z,4436
2022-08-01T16:01:42.983Z,4192
2022-08-01T16:02:58.921Z,4036
2022-08-01T16:04:15.360Z,3864
2022-08-01T16:05:31.554Z,3748
2022-08-01T16:06:47.731Z,3664
2022-08-01T16:08:03.932Z,3584
2022-08-01T16:09:20.119Z,3528
2022-08-01T16:10:36.313Z,3428
2022-08-01T16:11:52.494Z,3412
2022-08-01T16:13:08.435Z,3280
2022-08-01T16:14:24.869Z,3252
2022-08-01T16:15:41.061Z,3204
2022-08-01T16:16:56.019Z,3160
2022-08-01T16:18:12.200Z,3172
2022-08-01T16:19:28.652Z,3228
2022-08-01T16:20:44.575Z,3324
2022-08-01T16:22:01.027Z,3272
2022-08-01T16:23:17.208Z,3120
2022-08-01T16:24:33.400Z,2988
2022-08-01T16:25:49.349Z,2888
2022-08-01T16:27:05.777Z,2836
2022-08-01T16:28:21.975Z,2788
2022-08-01T16:29:38.147Z,2768
2022-08-01T16:30:54.090Z,2744
2022-08-01T16:32:10.538Z,2676
2022-08-01T16:33:25.498Z,2648
2022-08-01T16:34:41.934Z,2616
2022-08-01T16:35:58.120Z,2616
2022-08-01T16:37:14.316Z,2652
2022-08-01T16:38:30.239Z,2668
2022-08-01T16:39:46.692Z,2668
2022-08-01T16:41:02.629Z,2580
2022-08-01T16:42:19.067Z,2528
2022-08-01T16:43:35.258Z,2508
2022-08-01T16:44:51.183Z,2508
2022-08-01T16:46:07.624Z,2492
2022-08-01T16:47:23.819Z,2468
2022-08-01T16:48:39.752Z,2444
2022-08-01T16:49:55.215Z,2420
2022-08-01T16:51:11.150Z,2392
2022-08-01T16:52:27.581Z,2356
2022-08-01T16:53:43.532Z,2316
2022-08-01T16:54:59.709Z,2284
2022-08-01T16:56:15.897Z,2256
2022-08-01T16:57:32.341Z,2228
2022-08-01T16:58:48.272Z,2200
2022-08-01T17:00:04.732Z,2172
2022-08-01T17:01:20.915Z,2140
2022-08-01T17:02:37.109Z,2116
2022-08-01T17:03:53.036Z,2108
2022-08-01T17:05:09.484Z,2100
2022-08-01T17:06:24.438Z,2092
2022-08-01T17:07:40.613Z,2088
2022-08-01T17:08:56.806Z,2080
2022-08-01T17:10:13.255Z,2064
2022-08-01T17:11:29.191Z,2036
2022-08-01T17:12:45.628Z,1984
2022-08-01T17:14:01.829Z,1908
2022-08-01T17:15:18.011Z,1804
2022-08-01T17:16:33.937Z,1696
2022-08-01T17:17:50.130Z,1588
2022-08-01T17:19:06.312Z,1500
2022-08-01T17:20:22.514Z,1404
2022-08-01T17:21:38.950Z,1320